Accueil
METAR-TAF:

METAR-TAF

Aéroports :

Gênes, Italie

Aéroport de Gênes-Christophe Colomb

latitude: 44-25N, longitude: 008-51E, altitude: 2 m

Observation

Le bulletin a été fait il y a 26 minutes, à 08:50 UTC
Vent 12 kt de sud-est
Température 26°C
Humidité 79%
Pression 1014 hPa
Visibilité 10 km ou plus
Quelques nuages à une hauteur de 1500 ft
Nuages épars à une hauteur de 1800 ft

METAR: LIMJ 190850Z 13012KT 9999 FEW015 SCT018 26/22 Q1014

Heure: 11:16 (09:16 UTC)

Prévision

Le bulletin a été fait il y a 4 heures et 16 minutes, à 05:00 UTC
Prévision valable du 19 à 06 UTC au 20 à 06 UTC
Vent 7 kt de sud/sud-est
Visibilité 10 km ou plus
Nuages épars à une hauteur de 2500 ft

TAF: LIMJ 190500Z 1906/2006 15007KT 9999 SCT025

Observations et prévisions météorologiques de plus de 4000 aéroports (messages METAR et TAF).

Les stations disponibles sont représentées par des disques jaunes et rouges sur la carte.

Passer la souris dessus pour voir le nom de la station.

Cliquer dessus pour voir les observations et prévisions météorologiques.

Pour changer de carte: cliquez sur les boutons verts avec une croix noire pour zoomer, sur le bouton vert avec un tiret pour effectuer un zoom arrière, ou sur les flèches vertes pour les cartes adjacentes.


METAR-TAF: